sensor_id;sensor_type;location;lat;lon;timestamp;pressure;altitude;pressure_sealevel;temperature;humidity
60061;BME280;45933;51.336;12.612;2023-04-02T00:06:32;99165.88;;;7.73;66.37
60061;BME280;45933;51.336;12.612;2023-04-02T00:11:36;99176.34;;;7.65;66.37
60061;BME280;45933;51.336;12.612;2023-04-02T00:14:16;99178.88;;;7.70;66.14
60061;BME280;45933;51.336;12.612;2023-04-02T00:16:42;99186.69;;;7.64;66.07
60061;BME280;45933;51.336;12.612;2023-04-02T00:19:16;99178.97;;;7.60;66.49
60061;BME280;45933;51.336;12.612;2023-04-02T00:21:43;99185.03;;;7.58;66.30
60061;BME280;45933;51.336;12.612;2023-04-02T00:24:14;99184.13;;;7.59;66.27
60061;BME280;45933;51.336;12.612;2023-04-02T00:26:45;99198.00;;;7.59;66.47
60061;BME280;45933;51.336;12.612;2023-04-02T00:29:12;99199.75;;;7.54;66.24
60061;BME280;45933;51.336;12.612;2023-04-02T00:31:42;99198.91;;;7.51;66.64
60061;BME280;45933;51.336;12.612;2023-04-02T00:34:15;99208.34;;;7.58;66.24
60061;BME280;45933;51.336;12.612;2023-04-02T00:36:42;99205.84;;;7.50;66.69
60061;BME280;45933;51.336;12.612;2023-04-02T00:39:14;99210.16;;;7.51;66.32
60061;BME280;45933;51.336;12.612;2023-04-02T00:41:41;99210.19;;;7.45;66.26
60061;BME280;45933;51.336;12.612;2023-04-02T00:44:12;99221.44;;;7.44;66.88
60061;BME280;45933;51.336;12.612;2023-04-02T00:46:41;99215.38;;;7.42;66.37
60061;BME280;45933;51.336;12.612;2023-04-02T00:49:20;99222.31;;;7.42;66.43
60061;BME280;45933;51.336;12.612;2023-04-02T00:51:55;99233.56;;;7.41;66.38
60061;BME280;45933;51.336;12.612;2023-04-02T00:54:22;99228.41;;;7.34;66.46
60061;BME280;45933;51.336;12.612;2023-04-02T00:56:52;99241.41;;;7.33;66.19
60061;BME280;45933;51.336;12.612;2023-04-02T00:59:31;99242.25;;;7.35;66.24
60061;BME280;45933;51.336;12.612;2023-04-02T01:04:59;99252.63;;;7.30;66.43
60061;BME280;45933;51.336;12.612;2023-04-02T01:07:58;99255.19;;;7.35;66.11
60061;BME280;45933;51.336;12.612;2023-04-02T01:15:29;99260.44;;;7.26;66.42
60061;BME280;45933;51.336;12.612;2023-04-02T01:18:09;99268.19;;;7.30;66.66
60061;BME280;45933;51.336;12.612;2023-04-02T01:21:08;99273.38;;;7.33;66.38
60061;BME280;45933;51.336;12.612;2023-04-02T01:26:30;99272.53;;;7.28;66.23
60061;BME280;45933;51.336;12.612;2023-04-02T01:29:08;99286.38;;;7.24;66.76
60061;BME280;45933;51.336;12.612;2023-04-02T01:31:35;99288.13;;;7.19;66.25
60061;BME280;45933;51.336;12.612;2023-04-02T01:34:03;99289.88;;;7.13;66.59
60061;BME280;45933;51.336;12.612;2023-04-02T01:36:38;99299.38;;;7.18;66.57
60061;BME280;45933;51.336;12.612;2023-04-02T01:39:13;99303.69;;;7.13;66.25
60061;BME280;45933;51.336;12.612;2023-04-02T01:41:46;99304.56;;;7.11;66.60
60061;BME280;45933;51.336;12.612;2023-04-02T01:44:42;99306.28;;;7.18;65.95
60061;BME280;45933;51.336;12.612;2023-04-02T01:47:12;99308.91;;;7.04;66.16
60061;BME280;45933;51.336;12.612;2023-04-02T01:49:38;99312.38;;;7.01;66.43
60061;BME280;45933;51.336;12.612;2023-04-02T01:52:06;99317.59;;;6.91;66.39
60061;BME280;45933;51.336;12.612;2023-04-02T01:54:32;99313.28;;;6.91;66.28
60061;BME280;45933;51.336;12.612;2023-04-02T01:56:57;99334.84;;;6.93;65.99
60061;BME280;45933;51.336;12.612;2023-04-02T01:59:23;99326.25;;;6.88;66.22
60061;BME280;45933;51.336;12.612;2023-04-02T02:02:00;99341.78;;;6.88;66.10
60061;BME280;45933;51.336;12.612;2023-04-02T02:04:26;99339.22;;;6.80;66.17
60061;BME280;45933;51.336;12.612;2023-04-02T02:06:51;99349.56;;;6.74;65.79
60061;BME280;45933;51.336;12.612;2023-04-02T02:09:21;99358.22;;;6.73;66.08
60061;BME280;45933;51.336;12.612;2023-04-02T02:11:48;99354.78;;;6.61;66.44
60061;BME280;45933;51.336;12.612;2023-04-02T02:14:17;99362.56;;;6.62;65.83
60061;BME280;45933;51.336;12.612;2023-04-02T02:16:45;99355.66;;;6.55;66.45
60061;BME280;45933;51.336;12.612;2023-04-02T02:19:37;99372.03;;;6.59;66.34
60061;BME280;45933;51.336;12.612;2023-04-02T02:22:26;99376.38;;;6.57;66.22
60061;BME280;45933;51.336;12.612;2023-04-02T02:24:54;99376.38;;;6.47;66.60
60061;BME280;45933;51.336;12.612;2023-04-02T02:29:52;99387.59;;;6.45;66.61
60061;BME280;45933;51.336;12.612;2023-04-02T02:32:21;99401.41;;;6.45;66.12
60061;BME280;45933;51.336;12.612;2023-04-02T02:34:53;99393.63;;;6.41;66.48
60061;BME280;45933;51.336;12.612;2023-04-02T02:37:28;99397.94;;;6.36;66.46
60061;BME280;45933;51.336;12.612;2023-04-02T02:39:57;99408.28;;;6.31;66.25
60061;BME280;45933;51.336;12.612;2023-04-02T02:42:32;99411.75;;;6.38;66.62
60061;BME280;45933;51.336;12.612;2023-04-02T02:45:04;99414.34;;;6.33;66.37
60061;BME280;45933;51.336;12.612;2023-04-02T02:47:33;99416.06;;;6.28;66.58
60061;BME280;45933;51.336;12.612;2023-04-02T02:50:05;99416.91;;;6.25;66.80
60061;BME280;45933;51.336;12.612;2023-04-02T02:52:36;99427.25;;;6.27;66.82
60061;BME280;45933;51.336;12.612;2023-04-02T02:55:05;99439.34;;;6.26;67.25
60061;BME280;45933;51.336;12.612;2023-04-02T02:57:39;99430.72;;;6.26;67.31
60061;BME280;45933;51.336;12.612;2023-04-02T03:00:07;99434.16;;;6.25;66.75
60061;BME280;45933;51.336;12.612;2023-04-02T03:02:35;99453.16;;;6.25;67.18
60061;BME280;45933;51.336;12.612;2023-04-02T03:05:03;99454.00;;;6.18;67.29
60061;BME280;45933;51.336;12.612;2023-04-02T03:07:30;99460.94;;;6.22;67.00
60061;BME280;45933;51.336;12.612;2023-04-02T03:10:18;99460.06;;;6.28;67.05
60061;BME280;45933;51.336;12.612;2023-04-02T03:13:14;99462.66;;;6.29;66.49
60061;BME280;45933;51.336;12.612;2023-04-02T03:15:55;99472.09;;;6.17;66.86
60061;BME280;45933;51.336;12.612;2023-04-02T03:18:45;99474.69;;;6.12;66.88
60061;BME280;45933;51.336;12.612;2023-04-02T03:23:59;99482.44;;;6.17;66.66
60061;BME280;45933;51.336;12.612;2023-04-02T03:26:33;99491.06;;;6.16;66.82
60061;BME280;45933;51.336;12.612;2023-04-02T03:29:04;99493.66;;;6.11;66.85
60061;BME280;45933;51.336;12.612;2023-04-02T03:31:35;99497.13;;;6.12;66.47
60061;BME280;45933;51.336;12.612;2023-04-02T03:34:11;99510.03;;;6.06;67.20
60061;BME280;45933;51.336;12.612;2023-04-02T03:36:41;99512.63;;;6.09;66.80
60061;BME280;45933;51.336;12.612;2023-04-02T03:39:19;99512.59;;;6.06;67.13
60061;BME280;45933;51.336;12.612;2023-04-02T03:41:52;99518.66;;;6.03;67.02
60061;BME280;45933;51.336;12.612;2023-04-02T03:44:47;99527.28;;;6.05;66.87
60061;BME280;45933;51.336;12.612;2023-04-02T03:47:33;99534.16;;;6.05;66.84
60061;BME280;45933;51.336;12.612;2023-04-02T03:50:11;99544.53;;;6.01;66.91
60061;BME280;45933;51.336;12.612;2023-04-02T03:52:38;99547.94;;;5.91;66.78
60061;BME280;45933;51.336;12.612;2023-04-02T03:55:25;99554.88;;;6.01;66.66
60061;BME280;45933;51.336;12.612;2023-04-02T03:57:59;99565.16;;;5.91;66.78
60061;BME280;45933;51.336;12.612;2023-04-02T04:00:38;99571.22;;;5.91;67.01
60061;BME280;45933;51.336;12.612;2023-04-02T04:03:13;99573.75;;;5.87;67.27
60061;BME280;45933;51.336;12.612;2023-04-02T04:05:50;99586.66;;;5.87;67.30
60061;BME280;45933;51.336;12.612;2023-04-02T04:08:19;99588.34;;;5.78;67.25
60061;BME280;45933;51.336;12.612;2023-04-02T04:10:51;99595.25;;;5.81;67.09
60061;BME280;45933;51.336;12.612;2023-04-02T04:13:20;99603.03;;;5.81;66.93
60061;BME280;45933;51.336;12.612;2023-04-02T04:15:54;99612.50;;;5.82;66.94
60061;BME280;45933;51.336;12.612;2023-04-02T04:18:34;99624.56;;;5.85;66.76
60061;BME280;45933;51.336;12.612;2023-04-02T04:21:12;99621.94;;;5.74;66.58
60061;BME280;45933;51.336;12.612;2023-04-02T04:23:39;99627.97;;;5.70;66.55
60061;BME280;45933;51.336;12.612;2023-04-02T04:26:21;99639.16;;;5.73;66.54
60061;BME280;45933;51.336;12.612;2023-04-02T04:29:08;99640.06;;;5.77;66.60
60061;BME280;45933;51.336;12.612;2023-04-02T04:31:46;99646.91;;;5.72;66.58
60061;BME280;45933;51.336;12.612;2023-04-02T04:34:17;99658.94;;;5.65;66.49
60061;BME280;45933;51.336;12.612;2023-04-02T04:36:54;99658.06;;;5.63;66.53
60061;BME280;45933;51.336;12.612;2023-04-02T04:39:26;99658.06;;;5.63;66.10
60061;BME280;45933;51.336;12.612;2023-04-02T04:41:54;99675.28;;;5.60;66.16
60061;BME280;45933;51.336;12.612;2023-04-02T04:44:36;99670.97;;;5.60;66.53
60061;BME280;45933;51.336;12.612;2023-04-02T04:47:10;99681.28;;;5.56;66.46
60061;BME280;45933;51.336;12.612;2023-04-02T04:49:43;99676.97;;;5.55;66.29
60061;BME280;45933;51.336;12.612;2023-04-02T04:52:23;99695.06;;;5.58;66.37
60061;BME280;45933;51.336;12.612;2023-04-02T04:54:50;99691.56;;;5.49;66.40
60061;BME280;45933;51.336;12.612;2023-04-02T04:59:58;99711.34;;;5.47;66.03
60061;BME280;45933;51.336;12.612;2023-04-02T05:02:34;99713.94;;;5.46;65.92
60061;BME280;45933;51.336;12.612;2023-04-02T05:05:02;99732.88;;;5.43;66.14
60061;BME280;45933;51.336;12.612;2023-04-02T05:07:42;99729.44;;;5.46;66.03
60061;BME280;45933;51.336;12.612;2023-04-02T05:10:20;99741.47;;;5.41;66.02
60061;BME280;45933;51.336;12.612;2023-04-02T05:13:02;99751.81;;;5.42;66.09
60061;BME280;45933;51.336;12.612;2023-04-02T05:15:34;99746.56;;;5.35;66.25
60061;BME280;45933;51.336;12.612;2023-04-02T05:18:20;99760.41;;;5.40;65.90
60061;BME280;45933;51.336;12.612;2023-04-02T05:20:52;99762.09;;;5.38;66.11
60061;BME280;45933;51.336;12.612;2023-04-02T05:23:26;99773.28;;;5.37;65.97
60061;BME280;45933;51.336;12.612;2023-04-02T05:26:15;99783.63;;;5.34;66.06
60061;BME280;45933;51.336;12.612;2023-04-02T05:29:06;99785.41;;;5.39;65.93
60061;BME280;45933;51.336;12.612;2023-04-02T05:32:03;99793.91;;;5.32;65.96
60061;BME280;45933;51.336;12.612;2023-04-02T05:34:31;99802.47;;;5.25;65.97
60061;BME280;45933;51.336;12.612;2023-04-02T05:36:57;99806.81;;;5.28;65.51
60061;BME280;45933;51.336;12.612;2023-04-02T05:39:24;99806.75;;;5.24;65.63
60061;BME280;45933;51.336;12.612;2023-04-02T05:42:07;99813.66;;;5.25;66.09
60061;BME280;45933;51.336;12.612;2023-04-02T05:44:50;99814.56;;;5.29;65.84
60061;BME280;45933;51.336;12.612;2023-04-02T05:47:22;99822.28;;;5.26;66.23
60061;BME280;45933;51.336;12.612;2023-04-02T05:52:36;99832.59;;;5.24;66.04
60061;BME280;45933;51.336;12.612;2023-04-02T05:57:44;99841.22;;;5.25;65.87
60061;BME280;45933;51.336;12.612;2023-04-02T06:03:06;99859.31;;;5.23;65.48
60061;BME280;45933;51.336;12.612;2023-04-02T06:05:39;99864.50;;;5.25;65.62
60061;BME280;45933;51.336;12.612;2023-04-02T06:08:20;99874.88;;;5.28;65.50
60061;BME280;45933;51.336;12.612;2023-04-02T06:10:54;99873.97;;;5.26;65.68
60061;BME280;45933;51.336;12.612;2023-04-02T06:13:21;99875.66;;;5.22;65.50
60061;BME280;45933;51.336;12.612;2023-04-02T06:15:47;99875.69;;;5.24;65.71
60061;BME280;45933;51.336;12.612;2023-04-02T06:18:27;99888.66;;;5.30;65.25
60061;BME280;45933;51.336;12.612;2023-04-02T06:20:54;99888.59;;;5.25;65.19
60061;BME280;45933;51.336;12.612;2023-04-02T06:23:42;99899.84;;;5.28;65.00
60061;BME280;45933;51.336;12.612;2023-04-02T06:26:32;99907.75;;;5.38;64.77
60061;BME280;45933;51.336;12.612;2023-04-02T06:29:07;99908.53;;;5.33;64.62
60061;BME280;45933;51.336;12.612;2023-04-02T06:31:41;99916.31;;;5.34;64.48
60061;BME280;45933;51.336;12.612;2023-04-02T06:34:17;99922.31;;;5.33;63.59
60061;BME280;45933;51.336;12.612;2023-04-02T06:36:43;99926.63;;;5.34;63.59
60061;BME280;45933;51.336;12.612;2023-04-02T06:39:18;99924.06;;;5.34;63.11
60061;BME280;45933;51.336;12.612;2023-04-02T06:41:44;99930.09;;;5.35;63.37
60061;BME280;45933;51.336;12.612;2023-04-02T06:44:16;99940.44;;;5.38;63.23
60061;BME280;45933;51.336;12.612;2023-04-02T06:46:52;99938.75;;;5.38;62.73
60061;BME280;45933;51.336;12.612;2023-04-02T06:49:40;99945.59;;;5.33;62.38
60061;BME280;45933;51.336;12.612;2023-04-02T06:52:20;99958.53;;;5.35;61.63
60061;BME280;45933;51.336;12.612;2023-04-02T06:54:48;99957.59;;;5.30;61.35
60061;BME280;45933;51.336;12.612;2023-04-02T06:57:13;99961.84;;;5.26;62.01
60061;BME280;45933;51.336;12.612;2023-04-02T06:59:38;99966.22;;;5.30;61.97
60061;BME280;45933;51.336;12.612;2023-04-02T07:02:16;99980.13;;;5.38;62.37
60061;BME280;45933;51.336;12.612;2023-04-02T07:04:46;99985.31;;;5.41;62.62
60061;BME280;45933;51.336;12.612;2023-04-02T07:07:11;99986.19;;;5.42;61.98
60061;BME280;45933;51.336;12.612;2023-04-02T07:09:37;99985.38;;;5.44;61.47
60061;BME280;45933;51.336;12.612;2023-04-02T07:12:10;99994.13;;;5.54;61.30
60061;BME280;45933;51.336;12.612;2023-04-02T07:14:35;99999.31;;;5.59;61.71
60061;BME280;45933;51.336;12.612;2023-04-02T07:17:00;99991.59;;;5.60;61.85
60061;BME280;45933;51.336;12.612;2023-04-02T07:19:26;100002.81;;;5.62;61.66
60061;BME280;45933;51.336;12.612;2023-04-02T07:21:51;100011.53;;;5.67;61.41
60061;BME280;45933;51.336;12.612;2023-04-02T07:24:25;100015.75;;;5.61;60.16
60061;BME280;45933;51.336;12.612;2023-04-02T07:26:51;100026.09;;;5.59;59.87
60061;BME280;45933;51.336;12.612;2023-04-02T07:29:16;100026.16;;;5.67;59.99
60061;BME280;45933;51.336;12.612;2023-04-02T07:31:42;100025.31;;;5.66;60.02
60061;BME280;45933;51.336;12.612;2023-04-02T07:34:08;100031.41;;;5.71;60.91
60061;BME280;45933;51.336;12.612;2023-04-02T07:36:34;100041.75;;;5.70;60.56
60061;BME280;45933;51.336;12.612;2023-04-02T07:38:59;100045.16;;;5.69;60.45
60061;BME280;45933;51.336;12.612;2023-04-02T07:41:25;100052.88;;;5.66;60.22
60061;BME280;45933;51.336;12.612;2023-04-02T07:43:50;100056.41;;;5.71;60.83
60061;BME280;45933;51.336;12.612;2023-04-02T07:46:16;100063.31;;;5.70;60.32
60061;BME280;45933;51.336;12.612;2023-04-02T07:48:43;100071.88;;;5.68;59.54
60061;BME280;45933;51.336;12.612;2023-04-02T07:51:17;100065.91;;;5.73;59.46
60061;BME280;45933;51.336;12.612;2023-04-02T07:53:43;100063.31;;;5.70;59.92
60061;BME280;45933;51.336;12.612;2023-04-02T07:56:12;100072.81;;;5.73;60.25
60061;BME280;45933;51.336;12.612;2023-04-02T07:58:38;100083.13;;;5.70;59.58
60061;BME280;45933;51.336;12.612;2023-04-02T08:01:03;100078.81;;;5.72;59.77
60061;BME280;45933;51.336;12.612;2023-04-02T08:03:29;100077.97;;;5.73;59.53
60061;BME280;45933;51.336;12.612;2023-04-02T08:05:56;100090.09;;;5.75;59.36
60061;BME280;45933;51.336;12.612;2023-04-02T08:08:23;100084.06;;;5.75;59.21
60061;BME280;45933;51.336;12.612;2023-04-02T08:10:49;100097.81;;;5.74;58.68
60061;BME280;45933;51.336;12.612;2023-04-02T08:13:15;100104.69;;;5.73;58.36
60061;BME280;45933;51.336;12.612;2023-04-02T08:15:41;100109.97;;;5.80;59.13
60061;BME280;45933;51.336;12.612;2023-04-02T08:18:07;100116.03;;;5.80;58.89
60061;BME280;45933;51.336;12.612;2023-04-02T08:20:32;100129.84;;;5.81;59.22
60061;BME280;45933;51.336;12.612;2023-04-02T08:22:58;100130.66;;;5.80;58.54
60061;BME280;45933;51.336;12.612;2023-04-02T08:25:25;100137.69;;;5.88;59.42
60061;BME280;45933;51.336;12.612;2023-04-02T08:27:51;100146.25;;;5.84;58.87
60061;BME280;45933;51.336;12.612;2023-04-02T08:30:16;100142.88;;;5.90;59.15
60061;BME280;45933;51.336;12.612;2023-04-02T08:32:42;100146.31;;;5.89;58.81
60061;BME280;45933;51.336;12.612;2023-04-02T08:35:09;100154.16;;;5.92;58.51
60061;BME280;45933;51.336;12.612;2023-04-02T08:37:35;100154.16;;;5.92;58.39
60061;BME280;45933;51.336;12.612;2023-04-02T08:40:00;100162.63;;;5.85;59.01
60061;BME280;45933;51.336;12.612;2023-04-02T08:45:35;100176.44;;;5.85;58.46
60061;BME280;45933;51.336;12.612;2023-04-02T08:48:02;100175.56;;;5.85;58.57
60061;BME280;45933;51.336;12.612;2023-04-02T08:50:32;100174.69;;;5.84;58.86
60061;BME280;45933;51.336;12.612;2023-04-02T08:53:01;100179.84;;;5.81;58.83
60061;BME280;45933;51.336;12.612;2023-04-02T08:55:34;100173.72;;;5.76;58.39
60061;BME280;45933;51.336;12.612;2023-04-02T09:00:43;100184.97;;;5.78;58.71
60061;BME280;45933;51.336;12.612;2023-04-02T09:03:17;100182.34;;;5.76;58.43
60061;BME280;45933;51.336;12.612;2023-04-02T09:05:43;100187.53;;;5.78;59.06
60061;BME280;45933;51.336;12.612;2023-04-02T09:08:24;100193.72;;;5.86;59.23
60061;BME280;45933;51.336;12.612;2023-04-02T09:10:57;100195.38;;;5.81;58.17
60061;BME280;45933;51.336;12.612;2023-04-02T09:13:29;100199.72;;;5.85;58.90
60061;BME280;45933;51.336;12.612;2023-04-02T09:16:09;100206.78;;;5.92;59.32
60061;BME280;45933;51.336;12.612;2023-04-02T09:18:35;100196.25;;;5.85;58.37
60061;BME280;45933;51.336;12.612;2023-04-02T09:23:47;100215.16;;;5.79;58.41
60061;BME280;45933;51.336;12.612;2023-04-02T09:26:21;100223.06;;;5.88;58.55
60061;BME280;45933;51.336;12.612;2023-04-02T09:29:05;100226.50;;;5.87;59.02
60061;BME280;45933;51.336;12.612;2023-04-02T09:31:46;100227.47;;;5.92;59.24
60061;BME280;45933;51.336;12.612;2023-04-02T09:34:31;100237.06;;;6.01;59.66
60061;BME280;45933;51.336;12.612;2023-04-02T09:37:16;100240.56;;;6.01;58.96
60061;BME280;45933;51.336;12.612;2023-04-02T09:39:42;100243.19;;;6.05;59.14
60061;BME280;45933;51.336;12.612;2023-04-02T09:42:28;100245.06;;;6.15;59.28
60061;BME280;45933;51.336;12.612;2023-04-02T09:45:11;100252.09;;;6.23;59.15
60061;BME280;45933;51.336;12.612;2023-04-02T09:47:38;100261.47;;;6.15;58.67
60061;BME280;45933;51.336;12.612;2023-04-02T09:52:51;100268.50;;;6.24;58.62
60061;BME280;45933;51.336;12.612;2023-04-02T09:55:28;100268.50;;;6.25;58.56
60061;BME280;45933;51.336;12.612;2023-04-02T09:58:12;100272.91;;;6.31;58.26
60061;BME280;45933;51.336;12.612;2023-04-02T10:00:39;100277.19;;;6.27;58.52
60061;BME280;45933;51.336;12.612;2023-04-02T10:03:29;100279.03;;;6.36;58.79
60061;BME280;45933;51.336;12.612;2023-04-02T10:06:12;100289.47;;;6.41;58.85
60061;BME280;45933;51.336;12.612;2023-04-02T10:08:40;100288.50;;;6.36;57.52
60061;BME280;45933;51.336;12.612;2023-04-02T10:11:09;100289.44;;;6.39;57.29
60061;BME280;45933;51.336;12.612;2023-04-02T10:16:15;100303.25;;;6.40;56.50
60061;BME280;45933;51.336;12.612;2023-04-02T10:19:02;100304.13;;;6.42;56.68
60061;BME280;45933;51.336;12.612;2023-04-02T10:21:33;100308.53;;;6.46;57.40
60061;BME280;45933;51.336;12.612;2023-04-02T10:23:59;100307.66;;;6.47;56.79
60061;BME280;45933;51.336;12.612;2023-04-02T10:26:30;100308.50;;;6.44;56.51
60061;BME280;45933;51.336;12.612;2023-04-02T10:29:50;100308.69;;;6.57;57.50
60061;BME280;45933;51.336;12.612;2023-04-02T10:32:16;100312.09;;;6.54;56.89
60061;BME280;45933;51.336;12.612;2023-04-02T10:35:01;100319.97;;;6.60;57.26
60061;BME280;45933;51.336;12.612;2023-04-02T10:40:18;100323.50;;;6.68;56.73
60061;BME280;45933;51.336;12.612;2023-04-02T10:42:58;100338.25;;;6.71;56.87
60061;BME280;45933;51.336;12.612;2023-04-02T10:45:34;100334.81;;;6.72;56.92
60061;BME280;45933;51.336;12.612;2023-04-02T10:48:25;100340.91;;;6.77;56.55
60061;BME280;45933;51.336;12.612;2023-04-02T10:51:05;100346.19;;;6.85;57.44
60061;BME280;45933;51.336;12.612;2023-04-02T10:53:58;100346.22;;;6.86;57.34
60061;BME280;45933;51.336;12.612;2023-04-02T10:56:28;100346.25;;;6.88;56.87
60061;BME280;45933;51.336;12.612;2023-04-02T10:59:00;100345.47;;;6.95;57.53
60061;BME280;45933;51.336;12.612;2023-04-02T11:01:28;100357.59;;;6.97;55.91
60061;BME280;45933;51.336;12.612;2023-04-02T11:03:58;100360.28;;;7.06;56.42
60061;BME280;45933;51.336;12.612;2023-04-02T11:06:29;100366.41;;;7.12;56.41
60061;BME280;45933;51.336;12.612;2023-04-02T11:08:59;100363.00;;;7.16;55.89
60061;BME280;45933;51.336;12.612;2023-04-02T11:11:37;100369.13;;;7.21;56.27
60061;BME280;45933;51.336;12.612;2023-04-02T11:14:30;100378.72;;;7.26;56.40
60061;BME280;45933;51.336;12.612;2023-04-02T11:16:59;100379.56;;;7.27;55.39
60061;BME280;45933;51.336;12.612;2023-04-02T11:19:27;100390.78;;;7.24;54.47
60061;BME280;45933;51.336;12.612;2023-04-02T11:21:55;100383.88;;;7.23;54.92
60061;BME280;45933;51.336;12.612;2023-04-02T11:29:36;100384.00;;;7.36;55.42
60061;BME280;45933;51.336;12.612;2023-04-02T11:44:03;100400.81;;;7.67;54.00
60061;BME280;45933;51.336;12.612;2023-04-02T11:48:41;100411.13;;;7.60;53.19
60061;BME280;45933;51.336;12.612;2023-04-02T11:53:44;100413.66;;;7.57;52.76
60061;BME280;45933;51.336;12.612;2023-04-02T11:56:19;100416.38;;;7.65;53.65
60061;BME280;45933;51.336;12.612;2023-04-02T11:59:19;100422.50;;;7.75;54.58
60061;BME280;45933;51.336;12.612;2023-04-02T12:09:42;100423.47;;;7.83;53.40
60061;BME280;45933;51.336;12.612;2023-04-02T12:12:25;100439.19;;;7.95;53.63
60061;BME280;45933;51.336;12.612;2023-04-02T12:14:53;100430.50;;;7.93;53.58
60061;BME280;45933;51.336;12.612;2023-04-02T12:17:28;100439.22;;;8.00;53.41
60061;BME280;45933;51.336;12.612;2023-04-02T12:22:52;100441.00;;;8.05;52.77
60061;BME280;45933;51.336;12.612;2023-04-02T12:25:26;100438.47;;;8.10;52.62
60061;BME280;45933;51.336;12.612;2023-04-02T12:30:35;100441.97;;;8.13;52.60
60061;BME280;45933;51.336;12.612;2023-04-02T12:33:26;100447.28;;;8.27;53.82
60061;BME280;45933;51.336;12.612;2023-04-02T12:35:59;100450.69;;;8.22;52.01
60061;BME280;45933;51.336;12.612;2023-04-02T12:38:28;100454.16;;;8.19;51.83
60061;BME280;45933;51.336;12.612;2023-04-02T12:43:29;100453.28;;;8.22;51.05
60061;BME280;45933;51.336;12.612;2023-04-02T12:45:57;100455.06;;;8.24;50.12
60061;BME280;45933;51.336;12.612;2023-04-02T12:48:23;100458.53;;;8.25;50.66
60061;BME280;45933;51.336;12.612;2023-04-02T12:50:50;100452.53;;;8.32;51.46
60061;BME280;45933;51.336;12.612;2023-04-02T12:53:25;100452.66;;;8.43;52.36
60061;BME280;45933;51.336;12.612;2023-04-02T12:55:53;100454.44;;;8.47;51.74
60061;BME280;45933;51.336;12.612;2023-04-02T12:58:34;100454.53;;;8.57;52.07
60061;BME280;45933;51.336;12.612;2023-04-02T13:01:15;100465.84;;;8.64;51.14
60061;BME280;45933;51.336;12.612;2023-04-02T13:04:09;100465.84;;;8.62;48.98
60061;BME280;45933;51.336;12.612;2023-04-02T13:06:37;100469.25;;;8.55;48.80
60061;BME280;45933;51.336;12.612;2023-04-02T13:09:27;100481.44;;;8.64;50.20
60061;BME280;45933;51.336;12.612;2023-04-02T13:11:54;100477.03;;;8.55;50.21
60061;BME280;45933;51.336;12.612;2023-04-02T13:14:20;100482.19;;;8.54;50.29
60061;BME280;45933;51.336;12.612;2023-04-02T13:16:47;100486.53;;;8.52;51.40
60061;BME280;45933;51.336;12.612;2023-04-02T13:21:41;100491.66;;;8.46;50.99
60061;BME280;45933;51.336;12.612;2023-04-02T13:24:16;100493.44;;;8.50;52.14
60061;BME280;45933;51.336;12.612;2023-04-02T13:26:41;100496.88;;;8.44;51.34
60061;BME280;45933;51.336;12.612;2023-04-02T13:29:23;100502.94;;;8.48;52.17
60061;BME280;45933;51.336;12.612;2023-04-02T13:31:50;100498.41;;;8.33;50.16
60061;BME280;45933;51.336;12.612;2023-04-02T13:34:16;100499.31;;;8.35;50.51
60061;BME280;45933;51.336;12.612;2023-04-02T13:36:42;100499.31;;;8.35;51.07
60061;BME280;45933;51.336;12.612;2023-04-02T13:39:08;100502.75;;;8.32;50.61
60061;BME280;45933;51.336;12.612;2023-04-02T13:41:39;100503.69;;;8.36;50.88
60061;BME280;45933;51.336;12.612;2023-04-02T13:44:06;100506.22;;;8.31;50.87
60061;BME280;45933;51.336;12.612;2023-04-02T13:46:37;100502.78;;;8.34;50.59
60061;BME280;45933;51.336;12.612;2023-04-02T13:49:02;100507.97;;;8.34;50.63
60061;BME280;45933;51.336;12.612;2023-04-02T13:52:05;100510.72;;;8.45;51.58
60061;BME280;45933;51.336;12.612;2023-04-02T13:54:40;100518.47;;;8.42;51.24
60061;BME280;45933;51.336;12.612;2023-04-02T13:57:07;100519.34;;;8.41;51.06
60061;BME280;45933;51.336;12.612;2023-04-02T13:59:32;100525.44;;;8.44;51.30
60061;BME280;45933;51.336;12.612;2023-04-02T14:02:03;100520.25;;;8.47;50.62
60061;BME280;45933;51.336;12.612;2023-04-02T14:04:39;100528.06;;;8.49;50.95
60061;BME280;45933;51.336;12.612;2023-04-02T14:07:18;100532.44;;;8.51;51.15
60061;BME280;45933;51.336;12.612;2023-04-02T14:13:05;100535.06;;;8.56;51.45
60061;BME280;45933;51.336;12.612;2023-04-02T14:26:34;100554.94;;;8.51;49.33
60061;BME280;45933;51.336;12.612;2023-04-02T14:30:02;100551.53;;;8.55;49.82
60061;BME280;45933;51.336;12.612;2023-04-02T14:32:31;100554.13;;;8.58;49.94
60061;BME280;45933;51.336;12.612;2023-04-02T14:38:20;100550.72;;;8.62;49.48
60061;BME280;45933;51.336;12.612;2023-04-02T14:40:58;100553.31;;;8.62;49.44
60061;BME280;45933;51.336;12.612;2023-04-02T14:46:06;100550.00;;;8.77;50.11
60061;BME280;45933;51.336;12.612;2023-04-02T14:51:29;100556.25;;;8.97;49.67
60061;BME280;45933;51.336;12.612;2023-04-02T14:54:14;100566.66;;;8.99;48.39
60061;BME280;45933;51.336;12.612;2023-04-02T14:56:51;100567.63;;;9.08;48.38
60061;BME280;45933;51.336;12.612;2023-04-02T14:59:51;100572.81;;;9.11;48.05
60061;BME280;45933;51.336;12.612;2023-04-02T15:04:57;100563.28;;;9.07;47.23
60061;BME280;45933;51.336;12.612;2023-04-02T15:07:27;100562.38;;;9.02;47.15
60061;BME280;45933;51.336;12.612;2023-04-02T15:10:06;100571.03;;;9.04;48.74
60061;BME280;45933;51.336;12.612;2023-04-02T15:12:35;100575.31;;;8.99;47.56
60061;BME280;45933;51.336;12.612;2023-04-02T15:15:25;100571.06;;;9.09;49.12
60061;BME280;45933;51.336;12.612;2023-04-02T15:17:52;100577.06;;;8.99;47.54
60061;BME280;45933;51.336;12.612;2023-04-02T15:20:18;100587.47;;;8.97;47.22
60061;BME280;45933;51.336;12.612;2023-04-02T15:26:18;100586.66;;;9.06;48.12
60061;BME280;45933;51.336;12.612;2023-04-02T15:28:49;100586.63;;;9.03;47.33